Time;durP1;ratioP1;P1;durP2;ratioP2;P2;SDS_P1;SDS_P2;PMS_P1;PMS_P2;Temp;Humidity;BMP_temperature;BMP_pressure;BME280_temperature;BME280_humidity;BME280_pressure;Samples;Min_cycle;Max_cycle;Signal;HPM_P1;HPM_P2
2021/08/15 00:01:13;;;;;;;8.25;3.70;;;21.80;96.30;;;;;;5031076;28;20473;-80
2021/08/15 00:03:39;;;;;;;9.68;3.95;;;21.70;96.40;;;;;;5030014;28;20025;-81
2021/08/15 00:06:05;;;;;;;10.30;4.13;;;21.70;96.60;;;;;;5030766;28;20032;-81
2021/08/15 00:08:32;;;;;;;8.32;4.25;;;21.70;96.50;;;;;;5029583;28;20075;-76
2021/08/15 00:10:58;;;;;;;10.82;4.05;;;21.70;96.40;;;;;;5031115;28;20025;-76
2021/08/15 00:13:24;;;;;;;9.15;3.80;;;21.60;96.30;;;;;;5031040;28;20037;-81
2021/08/15 00:15:50;;;;;;;8.82;3.97;;;21.60;96.40;;;;;;5030522;28;20041;-81
2021/08/15 00:18:15;;;;;;;9.77;3.85;;;21.60;96.20;;;;;;5029695;28;20037;-81
2021/08/15 00:20:41;;;;;;;8.27;3.70;;;21.60;96.30;;;;;;5029207;28;20075;-81
2021/08/15 00:23:07;;;;;;;10.50;3.92;;;21.60;96.10;;;;;;5030745;28;20120;-76
2021/08/15 00:25:33;;;;;;;8.25;4.18;;;21.60;95.90;;;;;;5031713;28;20121;-76
2021/08/15 00:27:58;;;;;;;8.68;4.07;;;21.60;95.40;;;;;;5029173;28;20128;-81
2021/08/15 00:30:24;;;;;;;8.98;4.10;;;21.60;95.30;;;;;;5030460;28;20076;-76
2021/08/15 00:32:50;;;;;;;6.95;4.50;;;21.60;94.70;;;;;;5030950;28;20044;-76
2021/08/15 00:35:16;;;;;;;11.07;4.05;;;21.60;94.70;;;;;;5029906;28;20030;-76
2021/08/15 00:37:42;;;;;;;9.70;4.28;;;21.60;94.40;;;;;;5029561;28;20080;-80
2021/08/15 00:40:07;;;;;;;8.05;4.40;;;21.50;94.70;;;;;;5030886;28;20020;-81
2021/08/15 00:42:33;;;;;;;11.85;3.78;;;21.50;94.90;;;;;;5026008;28;20034;-81
2021/08/15 00:44:59;;;;;;;8.40;4.38;;;21.50;94.70;;;;;;5023586;28;20631;-76
2021/08/15 00:47:24;;;;;;;9.02;4.25;;;21.50;95.10;;;;;;5029214;28;20029;-76
2021/08/15 00:49:50;;;;;;;9.80;4.22;;;21.50;95.30;;;;;;5030289;28;20488;-76
2021/08/15 00:52:16;;;;;;;6.65;4.10;;;21.50;95.50;;;;;;5029000;28;20058;-81
2021/08/15 00:54:42;;;;;;;11.57;4.68;;;21.50;95.60;;;;;;5030664;28;20029;-76
2021/08/15 00:57:08;;;;;;;9.60;4.47;;;21.50;96.00;;;;;;5030259;28;20095;-76
2021/08/15 00:59:38;;;;;;;8.30;4.82;;;21.50;95.80;;;;;;5030397;28;20031;-81
2021/08/15 01:02:04;;;;;;;13.02;4.65;;;21.60;95.80;;;;;;5030057;28;20116;-76
2021/08/15 01:04:30;;;;;;;11.13;4.70;;;21.50;95.20;;;;;;5028984;28;20039;-76
2021/08/15 01:06:55;;;;;;;8.63;4.43;;;21.50;94.50;;;;;;5029184;28;20029;-81
2021/08/15 01:09:22;;;;;;;8.73;5.00;;;21.50;94.30;;;;;;5028974;28;20033;-81
2021/08/15 01:11:48;;;;;;;12.07;5.53;;;21.40;93.70;;;;;;5030689;28;20384;-81
2021/08/15 01:14:14;;;;;;;13.50;4.50;;;21.30;93.50;;;;;;5029927;28;20401;-76
2021/08/15 01:16:42;;;;;;;9.98;4.63;;;21.30;92.90;;;;;;5029882;28;20030;-76
2021/08/15 01:19:09;;;;;;;15.00;4.97;;;21.30;92.30;;;;;;5030478;28;20101;-76
2021/08/15 01:21:38;;;;;;;11.05;4.88;;;21.30;92.10;;;;;;5032500;28;20018;-76
2021/08/15 01:24:04;;;;;;;7.35;4.40;;;21.30;91.50;;;;;;5033983;28;20112;-76
2021/08/15 01:26:31;;;;;;;7.85;4.60;;;21.20;90.80;;;;;;5028265;28;20029;-76
2021/08/15 01:28:57;;;;;;;9.13;4.53;;;21.20;90.60;;;;;;5014426;28;20116;-76
2021/08/15 01:31:25;;;;;;;10.73;4.90;;;21.20;90.70;;;;;;5012917;28;20065;-81
2021/08/15 01:33:51;;;;;;;6.75;4.55;;;21.20;91.30;;;;;;5012485;28;20559;-80
2021/08/15 01:36:19;;;;;;;12.15;5.20;;;21.10;91.40;;;;;;5014256;28;20026;-81
2021/08/15 01:38:47;;;;;;;10.05;5.35;;;21.10;91.50;;;;;;5014081;28;20548;-81
2021/08/15 01:41:13;;;;;;;10.07;4.78;;;21.00;91.70;;;;;;5012826;28;20034;-81
2021/08/15 01:43:51;;;;;;;10.00;5.43;;;21.00;92.00;;;;;;5018551;28;20034;-75
2021/08/15 01:46:18;;;;;;;9.10;5.25;;;20.90;92.10;;;;;;5030670;28;20049;-81
2021/08/15 01:48:43;;;;;;;10.43;5.30;;;20.90;92.50;;;;;;5031582;28;20039;-76
2021/08/15 01:51:09;;;;;;;13.40;5.30;;;20.80;92.70;;;;;;5023949;28;20026;-76
2021/08/15 01:53:35;;;;;;;13.75;5.30;;;20.70;93.30;;;;;;5033771;28;20036;-81
2021/08/15 01:56:01;;;;;;;10.00;4.78;;;20.70;95.00;;;;;;5032402;28;20049;-76
2021/08/15 01:58:27;;;;;;;11.30;4.70;;;20.60;97.00;;;;;;5034661;28;20021;-81
2021/08/15 02:00:52;;;;;;;12.38;4.68;;;20.60;98.30;;;;;;5033526;28;20032;-76
2021/08/15 02:03:18;;;;;;;17.75;4.95;;;20.60;99.90;;;;;;5031929;28;20040;-81
2021/08/15 02:05:43;;;;;;;17.60;4.68;;;20.50;99.90;;;;;;5031848;28;20065;-76
2021/08/15 02:08:10;;;;;;;17.23;4.32;;;20.40;99.90;;;;;;5032213;28;20559;-75
2021/08/15 02:10:36;;;;;;;13.75;4.10;;;20.40;99.90;;;;;;5033376;28;20513;-81
2021/08/15 02:13:04;;;;;;;15.05;3.78;;;20.30;99.90;;;;;;5032234;28;20124;-81
2021/08/15 02:15:31;;;;;;;8.95;3.40;;;20.30;99.90;;;;;;5032759;28;20056;-76
2021/08/15 02:17:58;;;;;;;10.23;3.03;;;20.30;99.90;;;;;;5033025;28;20492;-76
2021/08/15 02:20:24;;;;;;;13.85;3.60;;;20.20;99.90;;;;;;5030182;28;20113;-81
2021/08/15 02:22:49;;;;;;;10.43;3.45;;;20.20;99.90;;;;;;5031704;28;20124;-81
2021/08/15 02:25:17;;;;;;;13.95;3.53;;;20.20;99.90;;;;;;5033175;28;20516;-81
2021/08/15 02:27:43;;;;;;;10.48;3.20;;;20.20;99.90;;;;;;5032712;28;20029;-81
2021/08/15 02:30:11;;;;;;;9.40;3.28;;;20.20;99.90;;;;;;5032626;28;20033;-82
2021/08/15 02:32:37;;;;;;;12.25;3.00;;;20.20;99.90;;;;;;5031822;28;20141;-76
2021/08/15 02:35:04;;;;;;;9.75;3.03;;;20.20;99.90;;;;;;5031617;28;20100;-81
2021/08/15 02:37:33;;;;;;;13.35;3.30;;;20.10;99.90;;;;;;5031239;28;20029;-76
2021/08/15 02:40:00;;;;;;;12.40;3.50;;;20.10;99.90;;;;;;5032813;28;20052;-81
2021/08/15 02:42:30;;;;;;;16.25;3.60;;;20.10;99.90;;;;;;5028674;28;20033;-81
2021/08/15 02:44:56;;;;;;;9.18;3.35;;;20.10;99.90;;;;;;5027266;28;20045;-76
2021/08/15 02:47:22;;;;;;;12.18;3.05;;;20.10;99.90;;;;;;5031777;28;20036;-76
2021/08/15 02:49:48;;;;;;;10.30;3.15;;;20.00;99.90;;;;;;5032112;28;20558;-81
2021/08/15 02:52:14;;;;;;;13.38;3.63;;;20.00;99.90;;;;;;5031505;28;20480;-75
2021/08/15 02:54:40;;;;;;;11.55;3.05;;;20.00;99.90;;;;;;5032611;28;20525;-76
2021/08/15 02:57:05;;;;;;;10.00;3.03;;;20.00;99.90;;;;;;5032496;28;20017;-81
2021/08/15 02:59:33;;;;;;;9.95;3.05;;;20.00;99.90;;;;;;5032397;28;20029;-81
2021/08/15 03:01:59;;;;;;;17.40;3.88;;;20.00;99.90;;;;;;5032251;28;20099;-82
2021/08/15 03:04:24;;;;;;;9.35;2.97;;;19.90;99.90;;;;;;5032152;28;20455;-81
2021/08/15 03:06:50;;;;;;;11.63;3.08;;;19.90;99.90;;;;;;5031951;28;20025;-81
2021/08/15 03:09:16;;;;;;;11.57;3.22;;;19.90;99.90;;;;;;5031151;28;20042;-76
2021/08/15 03:11:41;;;;;;;12.75;3.83;;;19.80;99.90;;;;;;5030264;28;20032;-76
2021/08/15 03:14:07;;;;;;;16.45;3.45;;;19.80;99.90;;;;;;5030487;28;20044;-76
2021/08/15 03:16:32;;;;;;;12.38;3.42;;;19.80;99.90;;;;;;5031399;28;20196;-76
2021/08/15 03:18:58;;;;;;;11.73;3.25;;;19.80;99.90;;;;;;5031918;28;20032;-76
2021/08/15 03:21:30;;;;;;;15.38;3.28;;;19.70;99.90;;;;;;5028757;28;20036;-76
2021/08/15 03:23:55;;;;;;;11.73;3.60;;;19.70;99.90;;;;;;5031667;28;20025;-82
2021/08/15 03:26:21;;;;;;;11.63;3.53;;;19.70;99.90;;;;;;5027091;28;20036;-76
2021/08/15 03:28:47;;;;;;;22.10;4.28;;;19.70;99.90;;;;;;5012210;28;20503;-81
2021/08/15 03:31:13;;;;;;;10.93;3.42;;;19.70;99.90;;;;;;5011932;28;20026;-76
2021/08/15 03:33:38;;;;;;;15.85;3.70;;;19.70;99.90;;;;;;5012348;28;20109;-76
2021/08/15 03:36:05;;;;;;;15.30;3.95;;;19.70;99.90;;;;;;5011508;28;20045;-76
2021/08/15 03:38:30;;;;;;;17.05;3.75;;;19.70;99.90;;;;;;5012092;28;20029;-76
2021/08/15 03:40:56;;;;;;;24.40;3.70;;;19.70;99.90;;;;;;5012026;28;20450;-76
2021/08/15 03:43:21;;;;;;;14.25;3.65;;;19.70;99.90;;;;;;5021802;28;20041;-76
2021/08/15 03:45:47;;;;;;;19.65;4.30;;;19.60;99.90;;;;;;5030041;28;20155;-81
2021/08/15 03:48:13;;;;;;;18.58;4.40;;;19.60;99.90;;;;;;5029561;28;20136;-76
2021/08/15 03:50:38;;;;;;;19.83;4.45;;;19.60;99.90;;;;;;5021555;28;20563;-82
2021/08/15 03:53:04;;;;;;;20.35;4.25;;;19.60;99.90;;;;;;5031401;28;20033;-81
2021/08/15 03:55:29;;;;;;;19.83;4.55;;;19.50;99.90;;;;;;5031379;28;20788;-76
2021/08/15 03:57:55;;;;;;;13.07;4.32;;;19.60;99.90;;;;;;5029987;28;20025;-76
2021/08/15 04:00:21;;;;;;;20.38;3.83;;;19.50;99.90;;;;;;5030090;28;20136;-76
2021/08/15 04:02:46;;;;;;;22.42;4.53;;;19.50;99.90;;;;;;5030895;28;20030;-76
2021/08/15 04:05:12;;;;;;;22.20;4.55;;;19.50;99.90;;;;;;5028977;28;20072;-76
2021/08/15 04:07:38;;;;;;;14.73;3.97;;;19.50;99.90;;;;;;5029818;28;20026;-76
2021/08/15 04:10:04;;;;;;;15.45;4.40;;;19.50;99.90;;;;;;5030167;28;20396;-76
2021/08/15 04:12:30;;;;;;;18.25;4.40;;;19.40;99.90;;;;;;5029280;28;20124;-81
2021/08/15 04:14:56;;;;;;;18.13;5.03;;;19.40;99.90;;;;;;5029238;28;20028;-76
2021/08/15 04:17:21;;;;;;;14.98;4.78;;;19.40;99.90;;;;;;5030693;28;20033;-76
2021/08/15 04:19:47;;;;;;;25.15;4.50;;;19.40;99.90;;;;;;5029302;28;20033;-80
2021/08/15 04:22:13;;;;;;;16.27;4.72;;;19.40;99.90;;;;;;5025320;28;20540;-81
2021/08/15 04:24:39;;;;;;;17.38;4.70;;;19.40;99.90;;;;;;5011567;28;20916;-81
2021/08/15 04:27:05;;;;;;;11.10;4.10;;;19.40;99.90;;;;;;5020943;28;20416;-76
2021/08/15 04:29:35;;;;;;;21.42;4.05;;;19.40;99.90;;;;;;5029545;28;20029;-76
2021/08/15 04:32:01;;;;;;;18.45;3.92;;;19.40;99.90;;;;;;5030594;28;20100;-81
2021/08/15 04:34:26;;;;;;;19.35;4.45;;;19.40;99.90;;;;;;5030563;28;20159;-76
2021/08/15 04:36:52;;;;;;;13.02;4.57;;;19.40;99.90;;;;;;5030422;28;20026;-76
2021/08/15 04:39:18;;;;;;;13.30;4.30;;;19.40;99.90;;;;;;5031012;28;20052;-76
2021/08/15 04:41:43;;;;;;;13.18;4.13;;;19.40;99.90;;;;;;5030692;28;20412;-82
2021/08/15 04:44:09;;;;;;;19.15;4.95;;;19.40;99.90;;;;;;5031006;28;20037;-76
2021/08/15 04:46:35;;;;;;;14.98;4.78;;;19.30;99.90;;;;;;5009719;28;20184;-76
2021/08/15 04:49:00;;;;;;;19.52;4.93;;;19.30;99.90;;;;;;5011071;28;20030;-76
2021/08/15 04:51:26;;;;;;;19.00;4.95;;;19.30;99.90;;;;;;5019799;28;20029;-76
2021/08/15 04:53:51;;;;;;;13.93;5.22;;;19.30;99.90;;;;;;5030314;28;20022;-78
2021/08/15 04:56:17;;;;;;;16.92;5.00;;;19.30;99.90;;;;;;5033423;28;20029;-76
2021/08/15 04:58:43;;;;;;;17.67;5.68;;;19.30;99.90;;;;;;5034534;28;20025;-75
2021/08/15 05:01:08;;;;;;;17.15;4.97;;;19.30;99.90;;;;;;5034433;28;20032;-76
2021/08/15 05:03:36;;;;;;;15.48;4.90;;;19.30;99.90;;;;;;5034402;28;20557;-76
2021/08/15 05:06:02;;;;;;;17.90;4.75;;;19.30;99.90;;;;;;5034341;28;20071;-76
2021/08/15 05:08:28;;;;;;;19.05;4.88;;;19.30;99.90;;;;;;5034576;28;20049;-76
2021/08/15 05:10:58;;;;;;;20.13;5.28;;;19.30;99.90;;;;;;5034895;28;20060;-81
2021/08/15 05:13:24;;;;;;;22.35;5.53;;;19.30;99.90;;;;;;5034070;28;20029;-76
2021/08/15 05:15:53;;;;;;;17.02;5.40;;;19.20;99.90;;;;;;5033837;28;20033;-76
2021/08/15 05:18:19;;;;;;;18.48;6.32;;;19.20;99.90;;;;;;5032881;28;20520;-82
2021/08/15 05:20:44;;;;;;;19.17;5.13;;;19.20;99.90;;;;;;5032790;28;20022;-77
2021/08/15 05:23:10;;;;;;;19.05;5.22;;;19.20;99.90;;;;;;5033997;28;20033;-76
2021/08/15 05:25:36;;;;;;;22.45;5.32;;;19.20;99.90;;;;;;5034283;28;20508;-76
2021/08/15 05:28:03;;;;;;;17.17;5.72;;;19.30;99.90;;;;;;5033823;28;20101;-76
2021/08/15 05:30:29;;;;;;;13.48;4.72;;;19.30;99.90;;;;;;5033189;28;20033;-76
2021/08/15 05:32:54;;;;;;;24.70;5.68;;;19.30;99.90;;;;;;5033714;28;20036;-76
2021/08/15 05:35:20;;;;;;;17.38;6.05;;;19.40;99.90;;;;;;5033977;28;20030;-76
2021/08/15 05:37:46;;;;;;;22.40;5.60;;;19.40;99.90;;;;;;5032821;28;20026;-82
2021/08/15 05:40:12;;;;;;;16.55;5.57;;;19.40;99.90;;;;;;5032606;28;20049;-76
2021/08/15 05:42:38;;;;;;;16.08;5.47;;;19.40;99.90;;;;;;5032663;28;20381;-81
2021/08/15 05:45:04;;;;;;;18.42;5.70;;;19.40;99.90;;;;;;5024970;28;20045;-77
2021/08/15 05:47:29;;;;;;;14.75;5.43;;;19.50;99.90;;;;;;5030584;28;20064;-76
2021/08/15 05:49:55;;;;;;;14.00;4.80;;;19.40;99.90;;;;;;5032173;28;20049;-81
2021/08/15 05:52:21;;;;;;;13.13;4.68;;;19.40;99.90;;;;;;5032317;28;20184;-76
2021/08/15 05:54:46;;;;;;;12.75;5.00;;;19.40;99.90;;;;;;5033837;28;20395;-76
2021/08/15 05:57:12;;;;;;;16.83;5.78;;;19.40;99.90;;;;;;5033810;28;20059;-76
2021/08/15 05:59:38;;;;;;;11.40;4.38;;;19.30;99.90;;;;;;5021720;28;20030;-76
2021/08/15 06:02:03;;;;;;;23.13;5.25;;;19.40;99.90;;;;;;5011705;28;20057;-76
2021/08/15 06:04:30;;;;;;;15.23;4.70;;;19.40;99.90;;;;;;5012353;28;20077;-77
2021/08/15 06:06:55;;;;;;;16.30;5.15;;;19.40;99.90;;;;;;5013143;28;20021;-81
2021/08/15 06:09:21;;;;;;;11.43;5.00;;;19.40;99.90;;;;;;5013447;28;20493;-82
2021/08/15 06:11:46;;;;;;;18.17;4.60;;;19.50;99.90;;;;;;5013448;28;20041;-81
2021/08/15 06:14:14;;;;;;;15.73;4.22;;;19.60;99.90;;;;;;5011706;28;20060;-81
2021/08/15 06:16:40;;;;;;;14.90;4.88;;;19.60;99.90;;;;;;5011215;28;20509;-82
2021/08/15 06:19:06;;;;;;;11.07;4.40;;;19.60;99.90;;;;;;5012219;28;20022;-76
2021/08/15 06:21:31;;;;;;;13.68;4.43;;;19.50;99.90;;;;;;5022372;28;20036;-76
2021/08/15 06:23:57;;;;;;;10.73;4.18;;;19.50;99.90;;;;;;5031459;28;20017;-81
2021/08/15 06:26:23;;;;;;;14.35;4.57;;;19.60;99.90;;;;;;5028210;28;20496;-82
2021/08/15 06:28:49;;;;;;;13.75;3.95;;;19.50;99.90;;;;;;5014116;28;20097;-82
2021/08/15 06:31:14;;;;;;;10.43;4.20;;;19.60;99.90;;;;;;5013062;28;20030;-76
2021/08/15 06:33:40;;;;;;;13.38;4.47;;;19.70;99.90;;;;;;5012675;28;20468;-76
2021/08/15 06:36:06;;;;;;;14.05;4.50;;;19.80;99.90;;;;;;5012145;28;20026;-81
2021/08/15 06:38:31;;;;;;;13.30;5.15;;;19.80;99.90;;;;;;5013219;28;20104;-80
2021/08/15 06:40:57;;;;;;;14.52;4.65;;;19.80;99.90;;;;;;5012419;28;20062;-82
2021/08/15 06:43:23;;;;;;;12.13;4.50;;;19.80;99.90;;;;;;5015640;28;20038;-81
2021/08/15 06:45:49;;;;;;;12.23;3.78;;;19.70;99.90;;;;;;5031624;28;20165;-82
2021/08/15 06:48:14;;;;;;;12.30;4.88;;;19.80;99.90;;;;;;5029646;28;20132;-76
2021/08/15 06:50:40;;;;;;;11.25;4.10;;;19.90;99.90;;;;;;5030269;28;20029;-82
2021/08/15 06:53:06;;;;;;;13.23;3.92;;;20.10;99.90;;;;;;5032935;28;20037;-76
2021/08/15 06:55:32;;;;;;;13.40;4.13;;;20.10;99.90;;;;;;5032575;28;20080;-76
2021/08/15 06:57:57;;;;;;;16.98;4.00;;;20.20;99.90;;;;;;5032647;28;20057;-76
2021/08/15 07:00:24;;;;;;;9.88;3.60;;;20.20;99.90;;;;;;5027724;28;20056;-76
2021/08/15 07:02:49;;;;;;;11.63;4.00;;;20.20;99.90;;;;;;5027397;28;20030;-82
2021/08/15 07:05:16;;;;;;;14.82;3.70;;;20.10;99.90;;;;;;5027480;28;20033;-76
2021/08/15 07:07:42;;;;;;;12.75;3.58;;;20.10;99.90;;;;;;5012856;28;20030;-76
2021/08/15 07:10:09;;;;;;;15.60;3.92;;;20.10;99.90;;;;;;5011382;28;20109;-76
2021/08/15 07:12:35;;;;;;;16.02;4.03;;;20.20;99.90;;;;;;5012659;28;20065;-76
2021/08/15 07:15:01;;;;;;;12.38;3.88;;;20.40;99.90;;;;;;5011843;28;20031;-76
2021/08/15 07:17:27;;;;;;;13.05;3.80;;;20.40;99.90;;;;;;5026079;28;20037;-76
2021/08/15 07:19:53;;;;;;;8.38;3.47;;;20.60;99.90;;;;;;5012447;28;20437;-81
2021/08/15 07:22:19;;;;;;;11.23;4.00;;;20.90;99.90;;;;;;5028272;28;20066;-76
2021/08/15 07:24:45;;;;;;;11.82;3.72;;;21.10;99.90;;;;;;5031792;28;20053;-76
2021/08/15 07:27:10;;;;;;;7.18;3.03;;;21.20;99.90;;;;;;5020287;28;20026;-78
2021/08/15 07:29:36;;;;;;;12.07;3.63;;;21.10;99.90;;;;;;5012286;28;20026;-76
2021/08/15 07:32:02;;;;;;;12.75;3.65;;;21.20;99.90;;;;;;5011700;28;20083;-76
2021/08/15 07:34:28;;;;;;;10.88;3.75;;;21.00;99.90;;;;;;5011976;28;20033;-76
2021/08/15 07:36:53;;;;;;;9.85;3.80;;;20.80;99.90;;;;;;5010500;28;20477;-81
2021/08/15 07:39:19;;;;;;;8.75;3.05;;;20.80;99.90;;;;;;5012011;28;20566;-76
2021/08/15 07:41:45;;;;;;;9.52;3.60;;;20.90;99.90;;;;;;5012219;28;20176;-76
2021/08/15 07:44:10;;;;;;;13.18;4.07;;;20.90;99.90;;;;;;5019238;28;20538;-81
2021/08/15 07:46:36;;;;;;;19.05;3.67;;;21.00;99.90;;;;;;5031524;28;20112;-82
2021/08/15 07:49:02;;;;;;;9.63;3.90;;;21.30;99.90;;;;;;5030150;28;20022;-76
2021/08/15 07:51:31;;;;;;;9.65;3.80;;;21.30;99.90;;;;;;5021724;28;20515;-76
2021/08/15 07:53:57;;;;;;;11.63;3.97;;;21.50;99.90;;;;;;5030051;28;20436;-81
2021/08/15 07:56:23;;;;;;;13.52;3.60;;;21.60;99.90;;;;;;5031890;28;20030;-77
2021/08/15 07:58:49;;;;;;;9.73;3.38;;;21.70;99.90;;;;;;5027040;28;20079;-82
2021/08/15 08:01:16;;;;;;;10.88;3.55;;;21.90;99.90;;;;;;5011327;28;20547;-76
2021/08/15 08:03:42;;;;;;;7.47;3.42;;;23.60;99.90;;;;;;5011219;28;20045;-82
2021/08/15 08:06:07;;;;;;;12.85;3.40;;;25.50;99.40;;;;;;5010894;28;20038;-76
2021/08/15 08:08:33;;;;;;;8.63;3.47;;;27.00;97.00;;;;;;5011445;28;20026;-76
2021/08/15 08:10:59;;;;;;;8.10;3.72;;;27.60;95.40;;;;;;5011544;28;20076;-77
2021/08/15 08:13:25;;;;;;;5.45;3.45;;;27.70;94.60;;;;;;5009989;28;20033;-82
2021/08/15 08:15:51;;;;;;;5.90;2.95;;;28.10;93.80;;;;;;5010957;28;20456;-81
2021/08/15 08:18:17;;;;;;;6.65;3.42;;;27.60;93.90;;;;;;5011077;28;20396;-76
2021/08/15 08:20:42;;;;;;;7.30;3.65;;;27.40;94.30;;;;;;5018972;28;20153;-77
2021/08/15 08:23:14;;;;;;;7.50;3.70;;;28.10;93.70;;;;;;5030792;28;20033;-77
2021/08/15 08:25:43;;;;;;;8.20;3.58;;;28.50;92.50;;;;;;5029873;28;20562;-75
2021/08/15 08:28:09;;;;;;;14.82;3.30;;;28.20;91.60;;;;;;5029563;28;20029;-76
2021/08/15 08:30:34;;;;;;;8.88;4.07;;;25.60;95.60;;;;;;5030803;28;20064;-82
2021/08/15 08:33:00;;;;;;;11.38;3.65;;;25.90;95.70;;;;;;5029387;28;20124;-81
2021/08/15 08:35:26;;;;;;;8.63;3.20;;;25.30;96.30;;;;;;5029640;28;20057;-76
2021/08/15 08:37:52;;;;;;;13.48;3.50;;;24.10;98.10;;;;;;5030875;28;20542;-76
2021/08/15 08:40:19;;;;;;;11.38;3.45;;;22.80;99.90;;;;;;5030945;28;20060;-76
2021/08/15 08:42:46;;;;;;;11.10;3.78;;;22.10;99.90;;;;;;5029634;28;20060;-76
2021/08/15 08:45:17;;;;;;;10.30;3.80;;;21.90;99.90;;;;;;5029214;28;20045;-77
2021/08/15 08:47:43;;;;;;;17.00;3.70;;;22.00;99.90;;;;;;5030334;28;20033;-81
2021/08/15 08:50:09;;;;;;;8.27;3.83;;;22.10;99.90;;;;;;5021113;28;20392;-76
2021/08/15 08:52:35;;;;;;;7.13;3.42;;;21.90;99.90;;;;;;5029736;28;20552;-81
2021/08/15 08:55:05;;;;;;;9.00;3.38;;;21.60;99.90;;;;;;5029313;28;20108;-81
2021/08/15 08:57:31;;;;;;;9.07;3.30;;;21.80;99.90;;;;;;5029468;28;20032;-81
2021/08/15 08:59:58;;;;;;;6.85;3.15;;;22.10;99.90;;;;;;5030596;28;20029;-81
2021/08/15 09:02:24;;;;;;;10.13;3.38;;;22.20;99.90;;;;;;5028823;28;20033;-75
2021/08/15 09:04:49;;;;;;;6.70;3.55;;;22.40;99.90;;;;;;5029067;28;20171;-81
2021/08/15 09:07:17;;;;;;;10.45;3.15;;;22.60;99.90;;;;;;5030879;28;20033;-81
2021/08/15 09:09:58;;;;;;;6.57;3.20;;;22.60;99.90;;;;;;5031186;28;20496;-76
2021/08/15 09:12:48;;;;;;;7.78;3.40;;;22.90;99.90;;;;;;5029894;28;20056;-75
2021/08/15 09:15:15;;;;;;;12.75;3.55;;;22.40;99.90;;;;;;5029427;28;20169;-81
2021/08/15 09:17:42;;;;;;;8.73;3.35;;;22.60;99.90;;;;;;5029956;28;20449;-81
2021/08/15 09:20:10;;;;;;;7.38;3.40;;;23.40;99.90;;;;;;5029842;28;20022;-82
2021/08/15 09:22:37;;;;;;;8.15;3.60;;;24.40;99.40;;;;;;5029501;28;20100;-76
2021/08/15 09:25:14;;;;;;;8.00;3.03;;;24.20;98.40;;;;;;5030286;28;20029;-82
2021/08/15 09:27:55;;;;;;;11.77;3.55;;;24.00;98.80;;;;;;5029044;28;20439;-76
2021/08/15 09:30:28;;;;;;;9.63;3.67;;;23.70;99.50;;;;;;5030156;28;20389;-76
2021/08/15 09:33:03;;;;;;;9.65;3.40;;;23.10;99.90;;;;;;5028771;28;20113;-76
2021/08/15 09:35:31;;;;;;;8.02;3.10;;;22.90;99.90;;;;;;5030054;28;20029;-81
2021/08/15 09:38:01;;;;;;;8.13;3.20;;;22.80;99.90;;;;;;5028727;28;20443;-76
2021/08/15 09:40:46;;;;;;;7.25;3.10;;;22.80;99.90;;;;;;5029800;28;20079;-81
2021/08/15 09:43:21;;;;;;;10.43;3.55;;;22.80;99.90;;;;;;5034048;28;20484;-76
2021/08/15 09:45:49;;;;;;;6.20;3.08;;;22.40;99.90;;;;;;5033307;28;20057;-82
2021/08/15 09:48:27;;;;;;;7.63;3.15;;;22.20;99.90;;;;;;5032319;28;20029;-75
2021/08/15 09:51:22;;;;;;;12.10;3.30;;;22.30;99.90;;;;;;5021640;28;20025;-77
2021/08/15 09:53:53;;;;;;;9.98;3.35;;;22.20;99.90;;;;;;5033570;28;20471;-77
2021/08/15 09:56:40;;;;;;;8.93;3.50;;;22.30;99.90;;;;;;5032232;28;20142;-77
2021/08/15 09:59:17;;;;;;;5.72;3.35;;;22.40;99.90;;;;;;5025950;28;20049;-81
2021/08/15 10:01:47;;;;;;;3.50;3.03;;;22.80;99.90;;;;;;5013597;28;20010;-77
2021/08/15 10:04:14;;;;;;;6.68;2.92;;;23.20;99.90;;;;;;5012652;28;20030;-77
2021/08/15 10:06:42;;;;;;;7.80;3.20;;;23.60;99.60;;;;;;5013462;28;20519;-76
2021/08/15 10:09:08;;;;;;;7.70;3.22;;;23.80;99.40;;;;;;5011686;28;20037;-76
2021/08/15 10:11:35;;;;;;;8.35;3.30;;;24.20;98.70;;;;;;5011291;28;20037;-83
2021/08/15 10:14:03;;;;;;;5.07;3.25;;;24.10;98.60;;;;;;5013055;28;20077;-77
2021/08/15 10:16:44;;;;;;;6.40;3.13;;;24.10;99.10;;;;;;5013083;28;20026;-76
2021/08/15 10:19:35;;;;;;;8.32;3.17;;;24.20;99.20;;;;;;5013742;28;20022;-76
2021/08/15 10:22:01;;;;;;;6.68;3.63;;;24.30;98.90;;;;;;5040923;28;20025;-81
2021/08/15 10:24:48;;;;;;;7.13;3.40;;;24.30;99.50;;;;;;5033440;28;20022;-82
2021/08/15 10:27:39;;;;;;;7.57;3.67;;;24.30;98.60;;;;;;5019016;28;20091;-81
2021/08/15 10:30:17;;;;;;;6.22;3.03;;;23.80;98.80;;;;;;5011478;28;20481;-76
2021/08/15 10:32:55;;;;;;;6.65;3.30;;;23.90;99.20;;;;;;5013274;28;20022;-76
2021/08/15 10:35:22;;;;;;;8.68;2.97;;;24.20;98.60;;;;;;5011540;28;20057;-76
2021/08/15 10:37:53;;;;;;;5.03;2.88;;;24.70;98.40;;;;;;5013009;28;20033;-81
2021/08/15 10:40:40;;;;;;;8.40;3.38;;;25.20;97.70;;;;;;5011681;28;20057;-76
2021/08/15 10:43:14;;;;;;;7.50;2.97;;;25.10;97.00;;;;;;5013266;28;20496;-81
2021/08/15 10:45:41;;;;;;;14.02;3.22;;;25.00;96.50;;;;;;5031151;28;20053;-76
2021/08/15 10:48:11;;;;;;;4.68;2.80;;;25.00;97.10;;;;;;5032969;28;20049;-76
2021/08/15 10:50:40;;;;;;;5.82;3.15;;;25.40;96.80;;;;;;5028774;28;20071;-82
2021/08/15 10:53:26;;;;;;;7.68;3.33;;;25.30;96.40;;;;;;5032061;28;20750;-76
2021/08/15 10:55:53;;;;;;;6.30;2.90;;;25.10;97.30;;;;;;5022114;28;20106;-79
2021/08/15 10:58:37;;;;;;;7.80;2.80;;;25.80;95.50;;;;;;5029760;28;20044;-76
2021/08/15 11:01:13;;;;;;;6.97;2.88;;;25.90;95.10;;;;;;5012594;28;20052;-81
2021/08/15 11:03:48;;;;;;;8.77;3.30;;;25.30;95.50;;;;;;5011511;28;20033;-76
2021/08/15 11:06:39;;;;;;;10.15;3.20;;;24.80;96.10;;;;;;5027555;28;20041;-76
2021/08/15 11:09:06;;;;;;;8.40;2.90;;;24.60;97.00;;;;;;5011766;28;20064;-77
2021/08/15 11:11:36;;;;;;;7.05;3.10;;;24.10;98.00;;;;;;5010261;28;20493;-82
2021/08/15 11:14:17;;;;;;;6.22;2.72;;;24.60;97.10;;;;;;5012374;28;20081;-76
2021/08/15 11:16:44;;;;;;;6.63;2.85;;;24.70;96.30;;;;;;5027167;28;20034;-76
2021/08/15 11:19:11;;;;;;;5.30;2.70;;;25.20;95.90;;;;;;5027451;28;20045;-76
2021/08/15 11:22:05;;;;;;;7.70;3.03;;;25.60;95.00;;;;;;5022427;28;20044;-76
2021/08/15 11:24:43;;;;;;;6.30;2.50;;;24.80;95.80;;;;;;5032053;28;20033;-76
2021/08/15 11:27:16;;;;;;;6.70;3.00;;;24.60;96.60;;;;;;5030492;28;20049;-82
2021/08/15 11:29:43;;;;;;;;;;;24.70;95.80;;;;;;5032387;28;20393;-76
2021/08/15 11:32:18;;;;;;;3.97;2.47;;;25.50;95.70;;;;;;5032268;28;19995;-76
2021/08/15 11:34:55;;;;;;;5.82;2.60;;;25.70;94.60;;;;;;5031157;28;20121;-76
2021/08/15 11:37:48;;;;;;;4.95;2.47;;;25.30;94.90;;;;;;5031708;28;20033;-76
2021/08/15 11:40:19;;;;;;;4.35;2.70;;;24.90;95.90;;;;;;5023606;28;20103;-82
2021/08/15 11:42:59;;;;;;;4.65;2.60;;;25.40;96.20;;;;;;5031784;28;20461;-80
2021/08/15 11:45:45;;;;;;;7.30;2.58;;;26.00;94.90;;;;;;5029676;28;20049;-76
2021/08/15 11:48:19;;;;;;;6.47;3.03;;;26.00;94.50;;;;;;5030259;28;20037;-76
2021/08/15 11:51:00;;;;;;;6.78;2.70;;;26.80;93.30;;;;;;5019710;28;20392;-76
2021/08/15 11:53:27;;;;;;;4.70;2.38;;;26.60;93.20;;;;;;5031548;28;20447;-76
2021/08/15 11:55:55;;;;;;;4.95;2.35;;;25.60;94.10;;;;;;5030361;28;20021;-81
2021/08/15 11:58:21;;;;;;;5.38;2.47;;;25.30;95.40;;;;;;5028492;28;20536;-76
2021/08/15 12:00:48;;;;;;;6.60;2.42;;;25.70;94.90;;;;;;5011985;28;20032;-82
2021/08/15 12:03:24;;;;;;;4.47;2.55;;;25.70;94.50;;;;;;5011568;28;20029;-76
2021/08/15 12:05:52;;;;;;;6.88;2.40;;;25.90;94.40;;;;;;5011288;28;20030;-75
2021/08/15 12:08:20;;;;;;;5.53;2.40;;;25.00;94.60;;;;;;5011562;28;20045;-75
2021/08/15 12:10:53;;;;;;;6.00;2.30;;;24.80;94.90;;;;;;5011183;28;20080;-76
2021/08/15 12:13:33;;;;;;;5.38;2.35;;;24.90;95.10;;;;;;5010123;28;20044;-81
2021/08/15 12:15:59;;;;;;;5.10;2.63;;;25.20;95.50;;;;;;5010783;28;20036;-82
2021/08/15 12:18:37;;;;;;;7.57;2.78;;;25.60;95.10;;;;;;5011128;28;20104;-82
2021/08/15 12:21:16;;;;;;;5.55;2.42;;;25.80;95.00;;;;;;5031750;28;20116;-82
2021/08/15 12:24:00;;;;;;;6.28;2.20;;;25.60;94.30;;;;;;5029859;28;20491;-81
2021/08/15 12:26:31;;;;;;;4.15;2.00;;;25.90;94.00;;;;;;5030882;28;20076;-76
2021/08/15 12:29:05;;;;;;;4.13;1.88;;;25.70;93.90;;;;;;5030813;28;20021;-76
2021/08/15 12:31:34;;;;;;;6.32;2.08;;;25.30;93.90;;;;;;5030458;28;20133;-76
2021/08/15 12:34:08;;;;;;;3.53;2.00;;;25.10;94.20;;;;;;5031048;28;20484;-81
2021/08/15 12:36:41;;;;;;;4.07;1.80;;;25.30;94.40;;;;;;5030937;28;20060;-77
2021/08/15 12:39:07;;;;;;;5.03;1.90;;;25.50;94.20;;;;;;5029432;28;20128;-76
2021/08/15 12:41:57;;;;;;;4.10;2.00;;;25.50;93.90;;;;;;5029463;28;20673;-76
2021/08/15 12:44:26;;;;;;;5.15;1.88;;;25.40;94.00;;;;;;5030825;28;20535;-79
2021/08/15 12:47:08;;;;;;;3.97;1.90;;;25.50;94.20;;;;;;5029415;28;20034;-76